Commit Graph

34 Commits

Author SHA1 Message Date
shane 3b8a2bac4a Style Changes 2014-03-07 10:07:20 +10:00
shane d6b8f71d58 Added some extra text, and adjusted the appearance on the acknowledgements and home pages 2014-03-05 16:18:03 +10:00
shane e453f86c26 Fixed settings for production, and removed the entry to the self test module until it is ready 2014-03-03 15:12:31 +10:00
shane 9a32d99c23 Added pressure and temperature theory 2014-03-03 13:08:12 +10:00
shane 5657a9cb38 Added glossary and acknowledgement pages, and reworked the structure of the theory pages. 2014-03-01 23:08:25 +10:00
shane adb505cc93 Added logos, two of the theory pages and some images. Also renamed some samples in the database so they work with linux 2014-03-01 16:57:52 +10:00
shane c7e9bcd866 Added Rock and Fossil pages 2014-02-24 13:05:21 +10:00
shane f8a12d58e8 Set mineral properties to use the correct font 2014-02-24 10:02:03 +10:00
shane 3ebb0e866a Fixed size of model window, and made the background transparent 2014-02-22 14:26:54 +10:00
shane 838112be0d Changes to the mineral practice page 2014-02-22 13:38:18 +10:00
shane 95abf5d7c3 Changes to the mineral practice page 2014-02-21 23:38:18 +10:00
shane 8c05629d51 Work on new ui layout 2014-02-20 15:21:50 +10:00
shane ef96af8d46 Iniital work for new UI 2014-02-19 16:10:57 +10:00
shane d72dbdd9b2 Fixed formatting of base page 2014-01-23 20:36:05 +10:00
shane 9509d788c0 Minerals now show their detail. The layout still needs work to get it showing correctly though. 2014-01-21 23:54:09 +10:00
shane d5867c8d4a Added seperate minerals detail page 2014-01-21 21:43:23 +10:00
shane 4ffca36884 Added details for minerals and fixed use of the active flag 2014-01-21 15:32:35 +10:00
shane e33d43f600 Updated display 2013-12-04 00:07:00 +10:00
shane b06afd90b0 Adjusted layout 2013-11-29 20:33:27 +10:00
shane c6618614d9 fixed mouse wheel scrolling 2013-11-27 19:21:41 +10:00
shane 77d872bd3d Temporarily fixing the size of the model viewer 2013-11-12 11:31:51 +10:00
shane 46bdb9832d Updated the database to add the new models to the webpage 2013-11-12 11:19:20 +10:00
shane 49b543db0b Added models and updated documentation 2013-10-25 11:28:24 +10:00
shane 34d8e295e9 Fixed nesting in the tree menu 2013-10-20 09:41:15 +10:00
shane 64f90d5075 Moved multiple choice questions to their own template 2013-09-15 20:17:45 +10:00
shane db9780699b Organising files 2013-09-14 22:52:59 +10:00
shane 7d83685d2c Added a base template 2013-09-14 21:26:54 +10:00
shane 6d40700cf3 Implemented tree view for selection of samples 2013-09-11 23:44:40 +10:00
shane 7f099bfca4 Some bootstrapping 2013-09-10 10:11:48 +10:00
shane 6057e403f6 Initial implementation of bootstrap 2013-09-05 22:49:56 +10:00
shane eff90b2391 Adjusting canvas size 2013-09-04 19:45:59 +10:00
shane a4da2240d7 implemented multiple choice question functionality 2013-08-24 22:12:41 +10:00
shane 8358990e2b Removed commented out code 2013-08-17 22:35:38 +10:00
shane 59bab5fc10 Implemented dajax and moved models to media rather than static 2013-08-17 21:12:21 +10:00